SJV743 WIII-WAAA
Flight info
| Callsign | SJV743 |
|---|---|
| Flight time | N/A |
| Altitude | 35000 |
| Route | CA T5 BIMAK |
| Aircraft | A320/M-SDE3FGHIRWY/LB1 |
Departure
| Time | 2026-05-01 14:03 |
|---|---|
| Airport | Soekarno-Hatta International Airport (WIII) |
Arrival
| Time | N/A |
|---|---|
| Airport | Sultan Hasanuddin International Airport (WAAA) |
| Time | Latitude | Longitude | Altitude | Speed | Heading |
|---|---|---|---|---|---|
| 2026-05-01 13:39 | -6.12490 | 106.64760 | 38 ft | 0 kts | 248° |
| 2026-05-01 13:52 | -6.12486 | 106.64770 | 38 ft | 3 kts | 248° |
| 2026-05-01 13:52 | -6.12479 | 106.64788 | 38 ft | 3 kts | 248° |
| 2026-05-01 13:53 | -6.12472 | 106.64804 | 38 ft | 2 kts | 248° |
| 2026-05-01 13:53 | -6.12469 | 106.64838 | 38 ft | 3 kts | 320° |
| 2026-05-01 13:53 | -6.12485 | 106.64845 | 38 ft | 3 kts | 356° |
| 2026-05-01 13:54 | -6.12506 | 106.64846 | 37 ft | 3 kts | 355° |
| 2026-05-01 13:54 | -6.12520 | 106.64848 | 38 ft | 1 kts | 339° |
| 2026-05-01 13:54 | -6.12521 | 106.64848 | 38 ft | 0 kts | 339° |
| 2026-05-01 13:56 | -6.12497 | 106.64839 | 38 ft | 11 kts | 340° |
| 2026-05-01 13:56 | -6.12437 | 106.64817 | 38 ft | 7 kts | 339° |
| 2026-05-01 13:57 | -6.12384 | 106.64796 | 38 ft | 9 kts | 340° |
| 2026-05-01 13:57 | -6.12342 | 106.64781 | 38 ft | 10 kts | 342° |
| 2026-05-01 13:57 | -6.12243 | 106.64764 | 38 ft | 12 kts | 342° |
| 2026-05-01 13:57 | -6.12162 | 106.64733 | 37 ft | 13 kts | 338° |
| 2026-05-01 13:58 | -6.12072 | 106.64698 | 38 ft | 15 kts | 339° |
| 2026-05-01 13:58 | -6.12004 | 106.64635 | 39 ft | 14 kts | 272° |
| 2026-05-01 13:58 | -6.12035 | 106.64536 | 39 ft | 16 kts | 248° |
| 2026-05-01 13:58 | -6.12077 | 106.64428 | 39 ft | 17 kts | 247° |
| 2026-05-01 13:59 | -6.12125 | 106.64311 | 39 ft | 19 kts | 248° |
| 2026-05-01 13:59 | -6.12176 | 106.64182 | 37 ft | 21 kts | 248° |
| 2026-05-01 13:59 | -6.12232 | 106.64043 | 36 ft | 22 kts | 248° |
| 2026-05-01 13:59 | -6.12244 | 106.63924 | 38 ft | 17 kts | 302° |
| 2026-05-01 14:00 | -6.12219 | 106.63901 | 40 ft | 4 kts | 324° |
| 2026-05-01 14:00 | -6.12215 | 106.63898 | 41 ft | 3 kts | 328° |
| 2026-05-01 14:00 | -6.12180 | 106.63890 | 39 ft | 7 kts | 359° |
| 2026-05-01 14:01 | -6.12130 | 106.63905 | 41 ft | 9 kts | 19° |
| 2026-05-01 14:01 | -6.12079 | 106.63941 | 41 ft | 3 kts | 64° |
| 2026-05-01 14:01 | -6.12078 | 106.63943 | 40 ft | 0 kts | 65° |
| 2026-05-01 14:01 | -6.12071 | 106.63959 | 40 ft | 15 kts | 67° |
| 2026-05-01 14:02 | -6.12005 | 106.64125 | 41 ft | 61 kts | 68° |
| 2026-05-01 14:02 | -6.11666 | 106.64974 | 40 ft | 131 kts | 68° |
| 2026-05-01 14:02 | -6.11414 | 106.65609 | 40 ft | 158 kts | 68° |
| 2026-05-01 14:02 | -6.10995 | 106.66705 | 375 ft | 166 kts | 71° |
| 2026-05-01 14:03 | -6.10610 | 106.67768 | 1032 ft | 161 kts | 70° |
| 2026-05-01 14:03 | -6.10043 | 106.68670 | 1530 ft | 165 kts | 50° |
| 2026-05-01 14:03 | -6.09233 | 106.69530 | 1899 ft | 177 kts | 46° |
| 2026-05-01 14:03 | -6.08309 | 106.70452 | 2053 ft | 198 kts | 46° |
| 2026-05-01 14:04 | -6.07276 | 106.71480 | 2190 ft | 221 kts | 46° |
| 2026-05-01 14:04 | -6.06126 | 106.72634 | 2422 ft | 245 kts | 46° |
| 2026-05-01 14:04 | -6.04884 | 106.73898 | 2893 ft | 260 kts | 46° |
| 2026-05-01 14:04 | -6.03609 | 106.75211 | 3655 ft | 264 kts | 46° |
| 2026-05-01 14:05 | -6.02318 | 106.76543 | 4414 ft | 268 kts | 46° |
| 2026-05-01 14:05 | -6.01003 | 106.77902 | 5166 ft | 274 kts | 47° |
| 2026-05-01 14:05 | -5.99667 | 106.79285 | 5913 ft | 278 kts | 47° |
| 2026-05-01 14:05 | -5.98432 | 106.80787 | 6605 ft | 282 kts | 62° |
| 2026-05-01 14:06 | -5.97799 | 106.82645 | 7266 ft | 284 kts | 85° |
| 2026-05-01 14:06 | -5.97973 | 106.84615 | 7942 ft | 285 kts | 109° |
| 2026-05-01 14:06 | -5.98720 | 106.86473 | 8609 ft | 288 kts | 114° |
| 2026-05-01 14:06 | -5.99512 | 106.88335 | 9255 ft | 291 kts | 114° |
| 2026-05-01 14:07 | -6.00317 | 106.90215 | 9903 ft | 295 kts | 114° |
| 2026-05-01 14:07 | -6.01136 | 106.92133 | 10302 ft | 307 kts | 114° |
| 2026-05-01 14:07 | -6.02006 | 106.94174 | 10446 ft | 328 kts | 114° |
| 2026-05-01 14:08 | -6.03855 | 106.98547 | 11122 ft | 349 kts | 113° |
| 2026-05-01 14:08 | -6.04805 | 107.00810 | 11657 ft | 353 kts | 113° |
| 2026-05-01 14:08 | -6.05760 | 107.03093 | 12201 ft | 356 kts | 113° |
| 2026-05-01 14:08 | -6.06725 | 107.05398 | 12748 ft | 359 kts | 113° |
| 2026-05-01 14:09 | -6.07697 | 107.07721 | 13270 ft | 362 kts | 113° |
| 2026-05-01 14:09 | -6.08679 | 107.10059 | 13779 ft | 365 kts | 113° |
| 2026-05-01 14:09 | -6.09673 | 107.12421 | 14291 ft | 368 kts | 113° |
| 2026-05-01 14:09 | -6.10674 | 107.14795 | 14795 ft | 371 kts | 112° |
| 2026-05-01 14:10 | -6.11672 | 107.17157 | 15284 ft | 373 kts | 112° |
| 2026-05-01 14:10 | -6.12691 | 107.19568 | 15772 ft | 376 kts | 112° |
| 2026-05-01 14:10 | -6.13715 | 107.22001 | 16233 ft | 378 kts | 112° |
| 2026-05-01 14:10 | -6.14741 | 107.24445 | 16696 ft | 381 kts | 112° |
| 2026-05-01 14:11 | -6.15774 | 107.26911 | 17152 ft | 384 kts | 112° |
| 2026-05-01 14:11 | -6.17856 | 107.31884 | 18036 ft | 388 kts | 112° |
| 2026-05-01 14:11 | -6.18909 | 107.34393 | 18476 ft | 391 kts | 112° |
| 2026-05-01 14:12 | -6.19966 | 107.36911 | 18887 ft | 393 kts | 112° |
| 2026-05-01 14:12 | -6.21034 | 107.39450 | 19290 ft | 396 kts | 112° |
| 2026-05-01 14:12 | -6.22110 | 107.42009 | 19688 ft | 398 kts | 112° |
| 2026-05-01 14:12 | -6.23191 | 107.44582 | 20078 ft | 401 kts | 112° |
| 2026-05-01 14:13 | -6.24280 | 107.47172 | 20468 ft | 403 kts | 112° |
| 2026-05-01 14:13 | -6.25374 | 107.49775 | 20847 ft | 406 kts | 112° |
| 2026-05-01 14:13 | -6.26475 | 107.52398 | 21219 ft | 408 kts | 112° |
| 2026-05-01 14:13 | -6.27581 | 107.55037 | 21577 ft | 411 kts | 112° |
| 2026-05-01 14:14 | -6.28681 | 107.57660 | 21917 ft | 413 kts | 112° |
| 2026-05-01 14:14 | -6.29803 | 107.60334 | 22254 ft | 416 kts | 112° |
| 2026-05-01 14:14 | -6.30932 | 107.63019 | 22580 ft | 418 kts | 112° |
| 2026-05-01 14:14 | -6.32068 | 107.65718 | 22890 ft | 420 kts | 112° |
| 2026-05-01 14:15 | -6.33207 | 107.68430 | 23201 ft | 422 kts | 112° |
| 2026-05-01 14:15 | -6.34350 | 107.71161 | 23500 ft | 424 kts | 111° |
| 2026-05-01 14:15 | -6.35497 | 107.73900 | 23787 ft | 427 kts | 111° |
| 2026-05-01 14:15 | -6.36651 | 107.76658 | 24085 ft | 429 kts | 111° |
| 2026-05-01 14:16 | -6.37810 | 107.79422 | 24354 ft | 431 kts | 112° |
| 2026-05-01 14:16 | -6.38976 | 107.82201 | 24630 ft | 432 kts | 112° |
| 2026-05-01 14:16 | -6.40150 | 107.84999 | 24907 ft | 434 kts | 112° |
| 2026-05-01 14:16 | -6.41309 | 107.87768 | 25185 ft | 436 kts | 111° |
| 2026-05-01 14:17 | -6.42488 | 107.90585 | 25454 ft | 438 kts | 111° |
| 2026-05-01 14:17 | -6.43671 | 107.93417 | 25716 ft | 440 kts | 112° |
| 2026-05-01 14:17 | -6.44856 | 107.96254 | 25966 ft | 441 kts | 112° |
| 2026-05-01 14:17 | -6.46048 | 107.99105 | 26219 ft | 443 kts | 112° |
| 2026-05-01 14:18 | -6.47245 | 108.01969 | 26466 ft | 445 kts | 112° |
| 2026-05-01 14:18 | -6.48446 | 108.04844 | 26712 ft | 446 kts | 112° |
| 2026-05-01 14:18 | -6.49649 | 108.07722 | 26961 ft | 448 kts | 112° |
| 2026-05-01 14:18 | -6.50450 | 108.09637 | 27100 ft | 449 kts | 112° |
| 2026-05-01 14:19 | -6.52078 | 108.13524 | 27426 ft | 452 kts | 112° |
| 2026-05-01 14:19 | -6.53299 | 108.16441 | 27666 ft | 453 kts | 112° |
| 2026-05-01 14:19 | -6.54520 | 108.19365 | 27923 ft | 455 kts | 112° |
| 2026-05-01 14:19 | -6.55748 | 108.22306 | 28149 ft | 456 kts | 112° |
| 2026-05-01 14:20 | -6.56979 | 108.25251 | 28386 ft | 458 kts | 112° |
| 2026-05-01 14:20 | -6.59445 | 108.31152 | 29019 ft | 457 kts | 112° |
| 2026-05-01 14:20 | -6.60658 | 108.34055 | 29365 ft | 456 kts | 112° |
| 2026-05-01 14:21 | -6.61887 | 108.36997 | 29719 ft | 455 kts | 112° |
| 2026-05-01 14:21 | -6.63110 | 108.39927 | 30072 ft | 454 kts | 112° |
| 2026-05-01 14:21 | -6.64331 | 108.42856 | 30423 ft | 453 kts | 112° |
| 2026-05-01 14:22 | -6.66766 | 108.48696 | 31123 ft | 452 kts | 112° |
| 2026-05-01 14:22 | -6.67978 | 108.51609 | 31471 ft | 451 kts | 112° |
| 2026-05-01 14:22 | -6.69190 | 108.54514 | 31820 ft | 450 kts | 112° |
| 2026-05-01 14:22 | -6.70405 | 108.57420 | 32163 ft | 450 kts | 112° |
| 2026-05-01 14:23 | -6.71633 | 108.60315 | 32499 ft | 449 kts | 112° |
| 2026-05-01 14:23 | -6.72845 | 108.63165 | 32836 ft | 449 kts | 112° |
| 2026-05-01 14:23 | -6.74072 | 108.66048 | 33182 ft | 448 kts | 112° |
| 2026-05-01 14:23 | -6.75298 | 108.68937 | 33494 ft | 447 kts | 112° |
| 2026-05-01 14:24 | -6.76517 | 108.71814 | 33809 ft | 447 kts | 112° |
| 2026-05-01 14:24 | -6.77737 | 108.74690 | 34114 ft | 446 kts | 112° |
| 2026-05-01 14:24 | -6.78955 | 108.77560 | 34418 ft | 446 kts | 112° |
| 2026-05-01 14:24 | -6.80170 | 108.80425 | 34710 ft | 445 kts | 112° |
| 2026-05-01 14:25 | -6.81388 | 108.83291 | 34872 ft | 445 kts | 112° |
| 2026-05-01 14:25 | -6.82610 | 108.86155 | 34898 ft | 445 kts | 112° |
| 2026-05-01 14:25 | -6.85050 | 108.91868 | 34897 ft | 444 kts | 112° |
| 2026-05-01 14:26 | -6.88697 | 109.00446 | 34898 ft | 444 kts | 112° |
| 2026-05-01 14:27 | -6.91114 | 109.06137 | 34898 ft | 445 kts | 112° |
| 2026-05-01 14:27 | -6.92714 | 109.12133 | 34898 ft | 451 kts | 89° |
| 2026-05-01 14:28 | -6.91243 | 109.18274 | 34897 ft | 456 kts | 69° |
| 2026-05-01 14:28 | -6.90106 | 109.21260 | 34897 ft | 457 kts | 69° |
| 2026-05-01 14:28 | -6.87815 | 109.27241 | 34897 ft | 458 kts | 69° |
| 2026-05-01 14:29 | -6.85532 | 109.33236 | 34897 ft | 458 kts | 69° |
| 2026-05-01 14:30 | -6.81019 | 109.45179 | 34900 ft | 459 kts | 69° |
| 2026-05-01 14:31 | -6.77607 | 109.54190 | 34907 ft | 460 kts | 69° |
| 2026-05-01 14:31 | -6.75327 | 109.60195 | 34910 ft | 459 kts | 69° |
| 2026-05-01 14:32 | -6.73046 | 109.66205 | 34914 ft | 459 kts | 69° |
| 2026-05-01 14:32 | -6.70782 | 109.72172 | 34914 ft | 459 kts | 69° |
| 2026-05-01 14:33 | -6.68502 | 109.78178 | 34912 ft | 459 kts | 69° |
| 2026-05-01 14:33 | -6.66223 | 109.84192 | 34910 ft | 460 kts | 69° |
| 2026-05-01 14:34 | -6.63937 | 109.90216 | 34910 ft | 460 kts | 69° |
| 2026-05-01 14:34 | -6.61652 | 109.96229 | 34912 ft | 460 kts | 69° |
| 2026-05-01 14:35 | -6.59370 | 110.02205 | 34913 ft | 460 kts | 69° |
| 2026-05-01 14:35 | -6.57078 | 110.08214 | 34912 ft | 460 kts | 69° |
| 2026-05-01 14:36 | -6.54788 | 110.14236 | 34912 ft | 460 kts | 69° |
| 2026-05-01 14:36 | -6.52497 | 110.20248 | 34910 ft | 460 kts | 69° |
| 2026-05-01 14:37 | -6.50210 | 110.26257 | 34911 ft | 460 kts | 69° |
| 2026-05-01 14:37 | -6.47920 | 110.32274 | 34912 ft | 460 kts | 69° |
| 2026-05-01 14:38 | -6.45754 | 110.38329 | 34908 ft | 460 kts | 76° |
| 2026-05-01 14:38 | -6.44767 | 110.44672 | 34909 ft | 460 kts | 82° |
| 2026-05-01 14:39 | -6.43927 | 110.51044 | 34909 ft | 460 kts | 82° |
| 2026-05-01 14:39 | -6.43080 | 110.57413 | 34912 ft | 460 kts | 82° |
| 2026-05-01 14:40 | -6.42245 | 110.63788 | 34913 ft | 459 kts | 82° |
| 2026-05-01 14:40 | -6.41410 | 110.70117 | 34914 ft | 459 kts | 82° |
| 2026-05-01 14:41 | -6.40559 | 110.76479 | 34913 ft | 459 kts | 82° |
| 2026-05-01 14:41 | -6.39711 | 110.82848 | 34914 ft | 459 kts | 82° |
| 2026-05-01 14:42 | -6.38862 | 110.89209 | 34914 ft | 459 kts | 82° |
| 2026-05-01 14:42 | -6.38014 | 110.95573 | 34912 ft | 459 kts | 82° |
| 2026-05-01 14:43 | -6.37171 | 111.01931 | 34912 ft | 458 kts | 82° |
| 2026-05-01 14:43 | -6.36324 | 111.08280 | 34914 ft | 458 kts | 82° |
| 2026-05-01 14:44 | -6.35490 | 111.14586 | 34916 ft | 458 kts | 82° |
| 2026-05-01 14:44 | -6.34240 | 111.24111 | 34917 ft | 458 kts | 82° |
| 2026-05-01 14:45 | -6.32981 | 111.33629 | 34915 ft | 457 kts | 82° |
| 2026-05-01 14:46 | -6.32139 | 111.39962 | 34913 ft | 457 kts | 82° |
| 2026-05-01 14:46 | -6.30877 | 111.49468 | 34912 ft | 457 kts | 82° |
| 2026-05-01 14:47 | -6.30039 | 111.55796 | 34914 ft | 457 kts | 82° |
| 2026-05-01 14:48 | -6.28779 | 111.65281 | 34912 ft | 456 kts | 82° |
| 2026-05-01 14:48 | -6.27510 | 111.74765 | 34910 ft | 456 kts | 82° |
| 2026-05-01 14:49 | -6.25835 | 111.87362 | 34912 ft | 456 kts | 82° |
| 2026-05-01 14:50 | -6.24105 | 111.99979 | 34911 ft | 455 kts | 82° |
| 2026-05-01 14:51 | -6.22809 | 112.09434 | 34911 ft | 455 kts | 82° |
| 2026-05-01 14:52 | -6.21669 | 112.17827 | 34911 ft | 455 kts | 82° |
| 2026-05-01 14:53 | -6.20379 | 112.27283 | 34911 ft | 455 kts | 82° |
| 2026-05-01 14:53 | -6.19520 | 112.33584 | 34910 ft | 455 kts | 82° |
| 2026-05-01 14:54 | -6.18651 | 112.39884 | 34907 ft | 455 kts | 82° |
| 2026-05-01 14:54 | -6.17782 | 112.46185 | 34906 ft | 455 kts | 82° |
| 2026-05-01 14:55 | -6.16919 | 112.52500 | 34902 ft | 456 kts | 82° |
| 2026-05-01 14:55 | -6.16046 | 112.58819 | 34902 ft | 456 kts | 82° |
| 2026-05-01 14:56 | -6.15179 | 112.65138 | 34904 ft | 457 kts | 82° |
| 2026-05-01 14:56 | -6.14319 | 112.71462 | 34907 ft | 457 kts | 82° |
| 2026-05-01 14:57 | -6.13457 | 112.77789 | 34909 ft | 457 kts | 82° |
| 2026-05-01 14:57 | -6.12141 | 112.87263 | 34905 ft | 456 kts | 82° |
| 2026-05-01 14:58 | -6.11267 | 112.93533 | 34905 ft | 457 kts | 82° |
| 2026-05-01 14:58 | -6.10390 | 112.99851 | 34905 ft | 457 kts | 82° |
| 2026-05-01 14:59 | -6.09521 | 113.06177 | 34904 ft | 456 kts | 82° |
| 2026-05-01 14:59 | -6.08644 | 113.12487 | 34893 ft | 454 kts | 82° |
| 2026-05-01 15:00 | -6.07330 | 113.21937 | 34890 ft | 456 kts | 82° |
| 2026-05-01 15:01 | -6.06460 | 113.28243 | 34888 ft | 456 kts | 82° |
| 2026-05-01 15:01 | -6.05597 | 113.34578 | 34899 ft | 458 kts | 82° |
| 2026-05-01 15:02 | -6.04712 | 113.40925 | 34910 ft | 459 kts | 82° |
| 2026-05-01 15:02 | -6.03820 | 113.47276 | 34917 ft | 459 kts | 82° |
| 2026-05-01 15:03 | -6.02933 | 113.53628 | 34922 ft | 459 kts | 82° |
| 2026-05-01 15:03 | -6.02060 | 113.59945 | 34921 ft | 459 kts | 82° |
| 2026-05-01 15:04 | -6.01178 | 113.66289 | 34918 ft | 458 kts | 82° |
| 2026-05-01 15:04 | -6.00290 | 113.72625 | 34918 ft | 458 kts | 82° |
| 2026-05-01 15:05 | -5.99406 | 113.78984 | 34916 ft | 459 kts | 82° |
| 2026-05-01 15:05 | -5.98522 | 113.85336 | 34919 ft | 459 kts | 82° |
| 2026-05-01 15:06 | -5.97629 | 113.91686 | 34920 ft | 459 kts | 82° |
| 2026-05-01 15:06 | -5.96737 | 113.98032 | 34919 ft | 459 kts | 82° |
| 2026-05-01 15:07 | -5.95851 | 114.04392 | 34920 ft | 459 kts | 82° |
| 2026-05-01 15:07 | -5.94967 | 114.10742 | 34920 ft | 459 kts | 82° |
| 2026-05-01 15:08 | -5.94075 | 114.17046 | 34920 ft | 459 kts | 82° |
| 2026-05-01 15:08 | -5.93183 | 114.23392 | 34919 ft | 459 kts | 82° |
| 2026-05-01 15:09 | -5.92293 | 114.29737 | 34918 ft | 459 kts | 82° |
| 2026-05-01 15:09 | -5.91403 | 114.36087 | 34918 ft | 459 kts | 82° |
| 2026-05-01 15:10 | -5.90506 | 114.42437 | 34919 ft | 459 kts | 82° |
| 2026-05-01 15:10 | -5.89154 | 114.51958 | 34919 ft | 459 kts | 82° |
| 2026-05-01 15:11 | -5.87821 | 114.61476 | 34920 ft | 459 kts | 82° |
| 2026-05-01 15:12 | -5.86922 | 114.67822 | 34921 ft | 459 kts | 82° |
| 2026-05-01 15:12 | -5.85565 | 114.77341 | 34921 ft | 459 kts | 82° |
| 2026-05-01 15:14 | -5.83329 | 114.93136 | 34928 ft | 458 kts | 82° |
| 2026-05-01 15:14 | -5.81982 | 115.02636 | 34930 ft | 458 kts | 82° |
| 2026-05-01 15:15 | -5.80181 | 115.15290 | 34931 ft | 457 kts | 82° |
| 2026-05-01 15:16 | -5.78388 | 115.27948 | 34927 ft | 458 kts | 82° |
| 2026-05-01 15:18 | -5.76125 | 115.43784 | 34941 ft | 458 kts | 82° |
| 2026-05-01 15:19 | -5.74323 | 115.56424 | 34944 ft | 459 kts | 82° |
| 2026-05-01 15:19 | -5.72951 | 115.65949 | 34949 ft | 459 kts | 82° |
| 2026-05-01 15:20 | -5.71596 | 115.75464 | 34945 ft | 459 kts | 82° |
| 2026-05-01 15:21 | -5.70681 | 115.81804 | 34945 ft | 459 kts | 82° |
| 2026-05-01 15:21 | -5.69764 | 115.88155 | 34942 ft | 459 kts | 82° |
| 2026-05-01 15:22 | -5.68398 | 115.97682 | 34945 ft | 459 kts | 82° |
| 2026-05-01 15:22 | -5.67482 | 116.04043 | 34944 ft | 460 kts | 82° |
| 2026-05-01 15:23 | -5.66576 | 116.10360 | 34948 ft | 460 kts | 82° |
| 2026-05-01 15:23 | -5.65663 | 116.16714 | 34945 ft | 460 kts | 82° |
| 2026-05-01 15:24 | -5.64745 | 116.23079 | 34948 ft | 460 kts | 82° |
| 2026-05-01 15:24 | -5.63841 | 116.29423 | 34931 ft | 454 kts | 82° |
| 2026-05-01 15:25 | -5.62934 | 116.35716 | 34944 ft | 457 kts | 82° |
| 2026-05-01 15:25 | -5.62015 | 116.42040 | 34934 ft | 458 kts | 82° |
| 2026-05-01 15:26 | -5.61104 | 116.48367 | 34934 ft | 458 kts | 82° |
| 2026-05-01 15:26 | -5.60190 | 116.54697 | 34924 ft | 458 kts | 82° |
| 2026-05-01 15:27 | -5.59267 | 116.61024 | 34926 ft | 458 kts | 82° |
| 2026-05-01 15:28 | -5.57888 | 116.70485 | 34934 ft | 459 kts | 82° |
| 2026-05-01 15:28 | -5.56972 | 116.76824 | 34937 ft | 459 kts | 82° |
| 2026-05-01 15:29 | -5.55590 | 116.86325 | 34945 ft | 458 kts | 82° |
| 2026-05-01 15:30 | -5.53908 | 116.97916 | 34938 ft | 458 kts | 82° |
| 2026-05-01 15:31 | -5.51445 | 117.18017 | 34946 ft | 458 kts | 86° |
| 2026-05-01 15:32 | -5.50304 | 117.30752 | 34939 ft | 458 kts | 85° |
| 2026-05-01 15:34 | -5.48418 | 117.49799 | 34935 ft | 458 kts | 85° |